This is the latest recevied weather packets stored in our database for station/object OK2ILA-13. If no packets are shown the sender has not sent any weather packets the latest 10 day(s).
| Time | Temp. | Humidity | Pressure | Rain* | Wind** | Luminosity | Snow |
|---|---|---|---|---|---|---|---|
| 1777698866 | 11.11° C | 49% | 1025.2 hPa | - | - | - | - |
| 1777698266 | 10.56° C | 50% | 1025.1 hPa | - | - | - | - |
| 1777697667 | 10° C | 51% | 1025 hPa | - | - | - | - |
| 1777697067 | 9.44° C | 52% | 1025 hPa | - | - | - | - |
| 1777696467 | 9.44° C | 52% | 1024.9 hPa | - | - | - | - |
| 1777695867 | 9.44° C | 51% | 1025 hPa | - | - | - | - |
| 1777695267 | 9.44° C | 51% | 1025 hPa | - | - | - | - |
| 1777694667 | 9.44° C | 52% | 1024.9 hPa | - | - | - | - |
| 1777694068 | 9.44° C | 52% | 1024.9 hPa | - | - | - | - |
| 1777693468 | 8.89° C | 53% | 1024.8 hPa | - | - | - | - |
| 1777692869 | 8.33° C | 55% | 1024.8 hPa | - | - | - | - |
| 1777692269 | 7.78° C | 55% | 1024.8 hPa | - | - | - | - |
| 1777691669 | 8.33° C | 54% | 1024.9 hPa | - | - | - | - |
| 1777691069 | 8.33° C | 53% | 1024.8 hPa | - | - | - | - |
| 1777690469 | 8.89° C | 52% | 1024.8 hPa | - | - | - | - |
| 1777689869 | 9.44° C | 51% | 1024.7 hPa | - | - | - | - |
| 1777689270 | 9.44° C | 51% | 1024.8 hPa | - | - | - | - |
| 1777688670 | 9.44° C | 51% | 1024.9 hPa | - | - | - | - |
| 1777688070 | 9.44° C | 51% | 1024.8 hPa | - | - | - | - |
| 1777668879 | 11.11° C | 46% | 1025.5 hPa | - | - | - | - |
| 1777667680 | 11.11° C | 46% | 1025.5 hPa | - | - | - | - |
| 1777667269 | 11.11° C | 46% | 1025.5 hPa | - | - | - | - |
| 1777665881 | 11.67° C | 44% | 1025.5 hPa | - | - | - | - |
| 1777662831 | 12.78° C | 42% | 1025.3 hPa | - | - | - | - |
| 1777662505 | 12.78° C | 42% | 1025.3 hPa | - | - | - | - |
* Rain since midnight (hover to see other rain measurements)
** Current wind speed in m/s (hover to see current wind gust speed)